createdAt,value
2019-04-14T00:00:29.479Z,-1.04
2019-04-14T00:03:04.445Z,-1.10
2019-04-14T00:05:32.749Z,-1.15
2019-04-14T00:08:00.237Z,-1.19
2019-04-14T00:10:26.808Z,-1.24
2019-04-14T00:12:53.534Z,-1.28
2019-04-14T00:15:29.225Z,-1.31
2019-04-14T00:17:47.999Z,-1.31
2019-04-14T00:20:16.347Z,-1.31
2019-04-14T00:22:42.766Z,-1.33
2019-04-14T00:25:09.166Z,-1.30
2019-04-14T00:27:36.653Z,-1.33
2019-04-14T00:30:07.640Z,-1.33
2019-04-14T00:32:35.955Z,-1.34
2019-04-14T00:35:08.229Z,-1.37
2019-04-14T00:37:53.362Z,-1.35
2019-04-14T00:40:21.660Z,-1.42
2019-04-14T00:43:00.577Z,-1.46
2019-04-14T00:45:40.492Z,-1.51
2019-04-14T00:48:09.038Z,-1.54
2019-04-14T00:50:29.845Z,-1.58
2019-04-14T00:52:56.654Z,-1.61
2019-04-14T00:55:23.084Z,-1.69
2019-04-14T00:57:49.207Z,-1.76
2019-04-14T01:00:17.607Z,-1.82
2019-04-14T01:02:44.973Z,-1.87
2019-04-14T01:05:13.747Z,-1.92
2019-04-14T01:07:39.936Z,-1.95
2019-04-14T01:10:08.179Z,-2.04
2019-04-14T01:12:34.362Z,-2.10
2019-04-14T01:15:00.830Z,-2.15
2019-04-14T01:17:26.921Z,-2.18
2019-04-14T01:19:53.082Z,-2.23
2019-04-14T01:22:20.540Z,-2.29
2019-04-14T01:24:46.905Z,-2.30
2019-04-14T01:27:13.013Z,-2.31
2019-04-14T01:29:40.471Z,-2.33
2019-04-14T01:32:06.666Z,-2.33
2019-04-14T01:34:32.964Z,-2.35
2019-04-14T01:36:59.115Z,-2.39
2019-04-14T01:39:26.420Z,-2.40
2019-04-14T01:41:52.793Z,-2.42
2019-04-14T01:44:19.917Z,-2.41
2019-04-14T01:46:46.074Z,-2.40
2019-04-14T01:49:13.592Z,-2.41
2019-04-14T01:51:48.417Z,-2.40
2019-04-14T01:54:17.127Z,-2.42
2019-04-14T01:56:49.218Z,-2.45
2019-04-14T01:59:17.303Z,-2.52
2019-04-14T02:01:48.153Z,-2.56
2019-04-14T02:04:14.363Z,-2.58
2019-04-14T02:06:40.461Z,-2.59
2019-04-14T02:09:09.698Z,-2.58
2019-04-14T02:11:36.015Z,-2.59
2019-04-14T02:14:03.603Z,-2.60
2019-04-14T02:16:37.851Z,-2.56
2019-04-14T02:18:58.650Z,-2.55
2019-04-14T02:21:25.969Z,-2.58
2019-04-14T02:23:52.192Z,-2.58
2019-04-14T02:26:19.671Z,-2.60
2019-04-14T02:28:46.205Z,-2.59
2019-04-14T02:31:31.777Z,-2.59
2019-04-14T02:34:07.485Z,-2.55
2019-04-14T02:36:39.785Z,-2.49
2019-04-14T02:39:22.319Z,-2.48
2019-04-14T02:44:04.172Z,-2.49
2019-04-14T02:46:31.422Z,-2.49
2019-04-14T02:56:22.284Z,-2.38
2019-04-14T02:58:52.025Z,-2.34
2019-04-14T03:01:35.374Z,-2.28
2019-04-14T03:03:43.864Z,-2.23
2019-04-14T03:06:12.493Z,-2.18
2019-04-14T03:08:45.636Z,-2.12
2019-04-14T03:11:09.554Z,-2.05
2019-04-14T03:13:35.966Z,-1.99
2019-04-14T03:16:02.298Z,-1.94
2019-04-14T03:18:39.629Z,-1.89
2019-04-14T03:21:21.367Z,-1.82
2019-04-14T03:26:47.427Z,-1.67
2019-04-14T03:29:21.601Z,-1.57
2019-04-14T03:39:36.981Z,-1.30
2019-04-14T03:41:36.819Z,-1.24
2019-04-14T03:44:10.486Z,-1.17
2019-04-14T03:49:06.272Z,-1.05
2019-04-14T03:51:40.458Z,-1.01
2019-04-14T03:53:59.102Z,-1.01
2019-04-14T03:56:11.378Z,-0.96
2019-04-14T03:58:35.926Z,-0.93
2019-04-14T04:01:02.143Z,-0.91
2019-04-14T04:03:28.279Z,-0.89
2019-04-14T04:05:54.574Z,-0.85
2019-04-14T04:08:22.348Z,-0.79
2019-04-14T04:10:51.101Z,-0.74
2019-04-14T04:13:17.423Z,-0.72
2019-04-14T04:15:43.754Z,-0.67
2019-04-14T04:18:29.222Z,-0.63
2019-04-14T04:20:58.833Z,-0.59
2019-04-14T04:23:42.505Z,-0.54
2019-04-14T04:26:14.657Z,-0.49
2019-04-14T04:28:58.370Z,-0.45
2019-04-14T04:31:29.241Z,-0.44
2019-04-14T04:34:01.057Z,-0.41
2019-04-14T04:36:46.387Z,-0.37
2019-04-14T04:39:21.426Z,-0.33
2019-04-14T04:41:47.633Z,-0.29
2019-04-14T04:44:13.858Z,-0.26
2019-04-14T04:46:39.946Z,-0.21
2019-04-14T04:49:11.730Z,-0.17
2019-04-14T04:51:34.321Z,-0.15
2019-04-14T04:54:01.703Z,-0.12
2019-04-14T04:56:28.122Z,-0.08
2019-04-14T04:58:54.536Z,-0.05
2019-04-14T05:01:20.997Z,0.01
2019-04-14T05:03:47.161Z,0.04
2019-04-14T05:06:40.058Z,0.09
2019-04-14T05:09:14.462Z,0.13
2019-04-14T05:11:42.690Z,0.15
2019-04-14T05:14:13.610Z,0.17
2019-04-14T05:16:39.842Z,0.20
2019-04-14T05:19:17.796Z,0.22
2019-04-14T05:21:34.335Z,0.28
2019-04-14T05:24:00.717Z,0.31
2019-04-14T05:26:27.024Z,0.34
2019-04-14T05:28:53.200Z,0.37
2019-04-14T05:31:20.679Z,0.40
2019-04-14T05:33:47.131Z,0.42
2019-04-14T05:36:13.336Z,0.47
2019-04-14T05:38:40.655Z,0.50
2019-04-14T05:41:07.091Z,0.46
2019-04-14T05:43:41.514Z,0.43
2019-04-14T05:46:01.391Z,0.40
2019-04-14T05:48:29.411Z,0.42
2019-04-14T05:50:55.834Z,0.47
2019-04-14T05:53:21.943Z,0.49
2019-04-14T05:55:48.264Z,0.52
2019-04-14T05:58:14.434Z,0.55
2019-04-14T06:00:43.742Z,0.58
2019-04-14T06:03:10.356Z,0.60
2019-04-14T06:05:36.694Z,0.61
2019-04-14T06:08:03.023Z,0.64
2019-04-14T06:10:29.326Z,0.57
2019-04-14T06:12:55.567Z,0.59
2019-04-14T06:15:21.773Z,0.61
2019-04-14T06:17:47.947Z,0.56
2019-04-14T06:20:14.308Z,0.51
2019-04-14T06:22:40.707Z,0.50
2019-04-14T06:25:07.316Z,0.52
2019-04-14T06:27:34.511Z,0.56
2019-04-14T06:30:02.636Z,0.60
2019-04-14T06:32:37.669Z,0.64
2019-04-14T06:35:18.200Z,0.60
2019-04-14T06:37:52.302Z,0.58
2019-04-14T06:40:19.463Z,0.64
2019-04-14T06:42:45.614Z,0.61
2019-04-14T06:45:12.070Z,0.65
2019-04-14T06:47:38.283Z,0.68
2019-04-14T06:50:05.641Z,0.64
2019-04-14T06:52:31.880Z,0.59
2019-04-14T06:54:57.990Z,0.57
2019-04-14T06:57:25.303Z,0.52
2019-04-14T06:59:51.383Z,0.49
2019-04-14T07:02:17.594Z,0.43
2019-04-14T07:04:43.740Z,0.33
2019-04-14T07:07:09.984Z,0.31
2019-04-14T07:09:36.178Z,0.25
2019-04-14T07:12:02.394Z,0.22
2019-04-14T07:14:32.044Z,0.28
2019-04-14T07:16:57.791Z,0.29
2019-04-14T07:19:23.977Z,0.29
2019-04-14T07:21:50.138Z,0.37
2019-04-14T07:24:16.299Z,0.45
2019-04-14T07:26:42.462Z,0.50
2019-04-14T07:29:08.622Z,0.57
2019-04-14T07:31:43.076Z,0.65
2019-04-14T07:34:11.142Z,0.71
2019-04-14T07:36:56.087Z,0.81
2019-04-14T07:39:40.553Z,0.89
2019-04-14T07:42:10.951Z,0.92
2019-04-14T07:44:55.459Z,0.90
2019-04-14T07:47:40.469Z,0.90
2019-04-14T07:50:25.628Z,0.93
2019-04-14T07:52:53.668Z,0.90
2019-04-14T07:55:40.234Z,0.92
2019-04-14T07:58:11.219Z,0.94
2019-04-14T08:00:48.675Z,0.95
2019-04-14T08:03:19.728Z,1.01
2019-04-14T08:05:45.992Z,1.07
2019-04-14T08:08:12.362Z,1.10
2019-04-14T08:10:38.971Z,1.08
2019-04-14T08:13:05.195Z,1.10
2019-04-14T08:15:31.443Z,1.12
2019-04-14T08:17:57.652Z,1.21
2019-04-14T08:20:27.725Z,1.28
2019-04-14T08:22:52.368Z,1.35
2019-04-14T08:25:18.619Z,1.39
2019-04-14T08:27:44.846Z,1.43
2019-04-14T08:30:11.679Z,1.52
2019-04-14T08:32:37.852Z,1.62
2019-04-14T08:35:06.108Z,1.75
2019-04-14T08:37:32.732Z,1.94
2019-04-14T08:39:58.895Z,2.08
2019-04-14T08:42:27.035Z,2.14
2019-04-14T08:44:55.260Z,2.27
2019-04-14T08:47:38.676Z,2.34
2019-04-14T08:50:23.973Z,2.35
2019-04-14T08:53:01.265Z,2.42
2019-04-14T08:55:35.625Z,2.48
2019-04-14T08:58:04.255Z,2.61
2019-04-14T09:00:49.204Z,2.76
2019-04-14T09:03:24.503Z,2.87
2019-04-14T09:06:04.946Z,2.97
2019-04-14T09:08:36.061Z,2.89
2019-04-14T09:11:06.756Z,2.83
2019-04-14T09:13:33.004Z,2.79
2019-04-14T09:15:59.380Z,2.78
2019-04-14T09:18:25.561Z,2.80
2019-04-14T09:20:52.823Z,2.79
2019-04-14T09:23:19.077Z,2.82
2019-04-14T09:25:45.777Z,2.85
2019-04-14T09:28:12.058Z,2.97
2019-04-14T09:30:38.235Z,3.04
2019-04-14T09:33:04.905Z,3.05
2019-04-14T09:35:32.257Z,3.07
2019-04-14T09:37:59.165Z,3.08
2019-04-14T09:40:25.640Z,3.12
2019-04-14T09:42:53.835Z,3.15
2019-04-14T09:45:20.095Z,3.18
2019-04-14T09:47:46.495Z,3.21
2019-04-14T09:50:12.980Z,3.25
2019-04-14T09:52:39.231Z,3.32
2019-04-14T09:55:05.572Z,3.41
2019-04-14T09:57:31.888Z,3.44
2019-04-14T09:59:58.003Z,3.50
2019-04-14T10:02:24.229Z,3.54
2019-04-14T10:04:50.392Z,3.55
2019-04-14T10:07:16.673Z,3.60
2019-04-14T10:09:42.903Z,3.68
2019-04-14T10:12:09.010Z,3.67
2019-04-14T10:14:35.222Z,3.64
2019-04-14T10:17:01.732Z,3.62
2019-04-14T10:19:28.174Z,3.58
2019-04-14T10:21:55.071Z,3.60
2019-04-14T10:24:21.559Z,3.60
2019-04-14T10:26:48.010Z,3.57
2019-04-14T10:29:14.179Z,3.63
2019-04-14T10:31:40.406Z,3.71
2019-04-14T10:34:06.541Z,3.70
2019-04-14T10:36:33.780Z,3.67
2019-04-14T10:39:00.017Z,3.68
2019-04-14T10:41:26.124Z,3.66
2019-04-14T10:43:52.354Z,3.66
2019-04-14T10:46:18.481Z,3.68
2019-04-14T10:48:44.685Z,3.76
2019-04-14T10:51:10.884Z,3.91
2019-04-14T10:53:37.165Z,3.96
2019-04-14T10:56:03.438Z,4.04
2019-04-14T10:58:29.675Z,4.02
2019-04-14T11:00:56.006Z,4.02
2019-04-14T11:03:22.933Z,4.13
2019-04-14T11:05:57.974Z,4.11
2019-04-14T11:08:24.132Z,4.09
2019-04-14T11:10:50.374Z,4.22
2019-04-14T11:13:16.500Z,4.24
2019-04-14T11:15:42.766Z,4.34
2019-04-14T11:18:08.944Z,4.39
2019-04-14T11:20:35.822Z,4.36
2019-04-14T11:23:03.506Z,4.39
2019-04-14T11:25:29.965Z,4.43
2019-04-14T11:27:56.211Z,4.42
2019-04-14T11:30:23.462Z,4.35
2019-04-14T11:33:01.205Z,4.34
2019-04-14T11:35:29.362Z,4.38
2019-04-14T11:38:09.806Z,4.40
2019-04-14T11:40:53.193Z,4.36
2019-04-14T11:43:19.402Z,4.42
2019-04-14T11:45:45.889Z,4.43
2019-04-14T11:48:12.463Z,4.38
2019-04-14T11:50:38.731Z,4.34
2019-04-14T11:53:05.009Z,4.35
2019-04-14T11:55:32.155Z,4.45
2019-04-14T11:57:58.489Z,4.56
2019-04-14T12:00:32.333Z,4.67
2019-04-14T12:03:16.135Z,4.81
2019-04-14T12:05:50.311Z,5.08
2019-04-14T12:08:21.082Z,5.25
2019-04-14T12:10:47.410Z,5.32
2019-04-14T12:13:13.517Z,5.25
2019-04-14T12:15:39.743Z,5.24
2019-04-14T12:18:05.914Z,5.25
2019-04-14T12:20:33.247Z,5.32
2019-04-14T12:22:59.668Z,5.20
2019-04-14T12:25:25.943Z,5.07
2019-04-14T12:27:53.456Z,5.03
2019-04-14T12:30:20.226Z,5.04
2019-04-14T12:32:46.509Z,5.00
2019-04-14T12:35:12.911Z,5.02
2019-04-14T12:37:39.314Z,4.99
2019-04-14T12:40:05.522Z,5.06
2019-04-14T12:42:48.521Z,5.15
2019-04-14T12:45:26.144Z,5.21
2019-04-14T12:47:54.387Z,5.27
2019-04-14T12:50:39.349Z,5.32
2019-04-14T12:53:06.424Z,5.36
2019-04-14T12:55:33.271Z,5.41
2019-04-14T12:58:01.543Z,5.32
2019-04-14T13:00:44.602Z,5.21
2019-04-14T13:03:10.806Z,5.11
2019-04-14T13:05:37.027Z,5.01
2019-04-14T13:08:03.642Z,4.95
2019-04-14T13:10:29.800Z,4.88
2019-04-14T13:12:56.004Z,4.80
2019-04-14T13:15:22.175Z,4.75
2019-04-14T13:17:49.661Z,4.70
2019-04-14T13:20:16.030Z,4.70
2019-04-14T13:22:42.294Z,4.70
2019-04-14T13:25:08.827Z,4.68
2019-04-14T13:27:34.940Z,4.70
2019-04-14T13:30:01.164Z,4.72
2019-04-14T13:32:35.823Z,4.79
2019-04-14T13:34:56.489Z,4.94
2019-04-14T13:37:22.643Z,4.97
2019-04-14T13:39:48.918Z,5.09
2019-04-14T13:42:16.105Z,5.27
2019-04-14T13:44:42.399Z,5.44
2019-04-14T13:47:09.791Z,5.55
2019-04-14T13:49:36.126Z,5.67
2019-04-14T13:52:02.366Z,5.75
2019-04-14T13:54:28.574Z,5.73
2019-04-14T13:56:54.921Z,5.66
2019-04-14T13:59:21.042Z,5.56
2019-04-14T14:01:47.269Z,5.53
2019-04-14T14:04:13.448Z,5.54
2019-04-14T14:06:39.683Z,5.55
2019-04-14T14:09:09.252Z,5.45
2019-04-14T14:11:40.342Z,5.34
2019-04-14T14:14:11.191Z,5.18
2019-04-14T14:16:57.547Z,5.06
2019-04-14T14:19:25.762Z,4.94
2019-04-14T14:21:56.793Z,4.84
2019-04-14T14:24:27.501Z,4.72
2019-04-14T14:26:58.583Z,4.62
2019-04-14T14:29:24.727Z,4.55
2019-04-14T14:31:51.678Z,4.52
2019-04-14T14:34:18.097Z,4.50
2019-04-14T14:36:44.254Z,4.47
2019-04-14T14:39:10.739Z,4.40
2019-04-14T14:41:37.338Z,4.40
2019-04-14T14:44:03.835Z,4.35
2019-04-14T14:46:31.962Z,4.29
2019-04-14T14:49:00.089Z,4.25
2019-04-14T14:51:39.985Z,4.22
2019-04-14T14:54:06.333Z,4.16
2019-04-14T14:56:32.482Z,4.15
2019-04-14T14:58:58.684Z,4.15
2019-04-14T15:01:24.821Z,4.12
2019-04-14T15:03:51.069Z,4.11
2019-04-14T15:06:17.237Z,4.10
2019-04-14T15:08:43.448Z,4.10
2019-04-14T15:11:09.631Z,4.07
2019-04-14T15:13:35.998Z,4.05
2019-04-14T15:16:02.372Z,4.02
2019-04-14T15:18:28.617Z,3.99
2019-04-14T15:20:54.833Z,3.98
2019-04-14T15:23:25.085Z,3.98
2019-04-14T15:25:49.108Z,3.99
2019-04-14T15:28:15.786Z,3.99
2019-04-14T15:30:42.246Z,4.02
2019-04-14T15:33:08.507Z,4.02
2019-04-14T15:35:34.776Z,4.05
2019-04-14T15:38:01.061Z,4.05
2019-04-14T15:40:27.360Z,4.01
2019-04-14T15:42:53.642Z,4.01
2019-04-14T15:45:19.887Z,4.03
2019-04-14T15:47:46.251Z,4.02
2019-04-14T15:50:12.720Z,4.04
2019-04-14T15:52:38.965Z,4.04
2019-04-14T15:55:06.657Z,4.02
2019-04-14T15:57:46.814Z,3.97
2019-04-14T16:00:21.448Z,3.95
2019-04-14T16:02:52.633Z,3.95
2019-04-14T16:05:30.092Z,3.90
2019-04-14T16:08:07.499Z,3.82
2019-04-14T16:10:52.579Z,3.82
2019-04-14T16:13:23.936Z,3.82
2019-04-14T16:15:57.873Z,3.83
2019-04-14T16:18:26.276Z,3.84
2019-04-14T16:20:52.619Z,3.87
2019-04-14T16:23:18.863Z,3.86
2019-04-14T16:25:46.967Z,3.87
2019-04-14T16:28:17.753Z,3.85
2019-04-14T16:30:51.420Z,3.86
2019-04-14T16:33:19.566Z,3.86
2019-04-14T16:35:47.264Z,3.84
2019-04-14T16:38:13.548Z,3.82
2019-04-14T16:40:39.778Z,3.82
2019-04-14T16:43:06.011Z,3.82
2019-04-14T16:45:32.223Z,3.82
2019-04-14T16:47:58.640Z,3.81
2019-04-14T16:50:24.738Z,3.79
2019-04-14T16:53:01.704Z,3.79
2019-04-14T16:55:46.245Z,3.79
2019-04-14T16:58:14.438Z,3.76
2019-04-14T17:00:42.598Z,3.76
2019-04-14T17:03:08.923Z,3.74
2019-04-14T17:05:35.135Z,3.73
2019-04-14T17:08:01.508Z,3.74
2019-04-14T17:10:27.829Z,3.74
2019-04-14T17:12:54.053Z,3.76
2019-04-14T17:15:37.340Z,3.78
2019-04-14T17:18:17.264Z,3.78
2019-04-14T17:21:00.766Z,3.78
2019-04-14T17:23:41.043Z,3.77
2019-04-14T17:26:24.021Z,3.75
2019-04-14T17:28:52.263Z,3.71
2019-04-14T17:31:20.359Z,3.68
2019-04-14T17:33:58.141Z,3.65
2019-04-14T17:36:35.276Z,3.65
2019-04-14T17:39:15.529Z,3.64
2019-04-14T17:41:46.673Z,3.64
2019-04-14T17:44:17.627Z,3.61
2019-04-14T17:46:57.714Z,3.60
2019-04-14T17:49:34.851Z,3.56
2019-04-14T17:52:19.336Z,3.51
2019-04-14T17:54:47.669Z,3.45
2019-04-14T17:57:32.548Z,3.41
2019-04-14T18:00:03.765Z,3.38
2019-04-14T18:02:32.136Z,3.41
2019-04-14T18:05:06.401Z,3.37
2019-04-14T18:07:34.966Z,3.34
2019-04-14T18:10:19.503Z,3.32
2019-04-14T18:12:56.601Z,3.32
2019-04-14T18:15:25.292Z,3.33
2019-04-14T18:18:08.681Z,3.38
2019-04-14T18:20:36.813Z,3.44
2019-04-14T18:23:03.052Z,3.46
2019-04-14T18:25:29.181Z,3.46
2019-04-14T18:27:57.290Z,3.46
2019-04-14T18:30:28.318Z,3.45
2019-04-14T18:32:56.418Z,3.46
2019-04-14T18:35:24.640Z,3.42
2019-04-14T18:37:55.583Z,3.33
2019-04-14T18:40:35.935Z,3.32
2019-04-14T18:43:09.815Z,3.31
2019-04-14T18:45:38.015Z,3.32
2019-04-14T18:48:12.054Z,3.29
2019-04-14T18:50:59.034Z,3.27
2019-04-14T18:53:27.060Z,3.24
2019-04-14T18:56:13.514Z,3.28
2019-04-14T18:58:44.223Z,3.28
2019-04-14T19:01:19.397Z,3.26
2019-04-14T19:03:45.501Z,3.24
2019-04-14T19:06:11.708Z,3.21
2019-04-14T19:08:37.820Z,3.22
2019-04-14T19:11:14.854Z,3.24
2019-04-14T19:13:42.994Z,3.27
2019-04-14T19:16:20.189Z,3.29
2019-04-14T19:18:48.382Z,3.31
2019-04-14T19:21:16.523Z,3.33
2019-04-14T19:23:42.658Z,3.35
2019-04-14T19:26:08.856Z,3.38
2019-04-14T19:28:35.040Z,3.37
2019-04-14T19:31:01.320Z,3.38
2019-04-14T19:33:27.528Z,3.40
2019-04-14T19:35:53.647Z,3.38
2019-04-14T19:38:19.867Z,3.37
2019-04-14T19:40:46.082Z,3.35
2019-04-14T19:43:23.164Z,3.33
2019-04-14T19:45:40.714Z,3.34
2019-04-14T19:48:06.889Z,3.36
2019-04-14T19:50:33.112Z,3.36
2019-04-14T19:52:59.377Z,3.34
2019-04-14T19:55:25.530Z,3.34
2019-04-14T19:57:51.919Z,3.30
2019-04-14T20:00:18.420Z,3.27
2019-04-14T20:02:44.611Z,3.29
2019-04-14T20:05:11.031Z,3.30
2019-04-14T20:07:37.344Z,3.31
2019-04-14T20:10:05.450Z,3.33
2019-04-14T20:12:31.745Z,3.29
2019-04-14T20:14:59.023Z,3.30
2019-04-14T20:17:27.410Z,3.32
2019-04-14T20:20:08.040Z,3.33
2019-04-14T20:22:51.443Z,3.33
2019-04-14T20:25:32.853Z,3.34
2019-04-14T20:27:56.304Z,3.30
2019-04-14T20:30:39.803Z,3.25
2019-04-14T20:33:06.001Z,3.23
2019-04-14T20:35:33.210Z,3.27
2019-04-14T20:37:59.438Z,3.28
2019-04-14T20:40:25.764Z,3.31
2019-04-14T20:42:51.912Z,3.31
2019-04-14T20:45:18.378Z,3.29
2019-04-14T20:47:44.572Z,3.29
2019-04-14T20:50:11.127Z,3.30
2019-04-14T20:52:37.388Z,3.29
2019-04-14T20:55:05.615Z,3.28
2019-04-14T20:57:31.749Z,3.25
2019-04-14T20:59:58.015Z,3.23
2019-04-14T21:02:28.811Z,3.22
2019-04-14T21:04:56.991Z,3.21
2019-04-14T21:07:27.897Z,3.20
2019-04-14T21:09:55.929Z,3.20
2019-04-14T21:12:24.052Z,3.19
2019-04-14T21:15:04.194Z,3.19
2019-04-14T21:17:35.303Z,3.20
2019-04-14T21:20:15.536Z,3.22
2019-04-14T21:22:44.735Z,3.19
2019-04-14T21:25:18.692Z,3.18
2019-04-14T21:28:03.729Z,3.21
2019-04-14T21:30:41.168Z,3.19
2019-04-14T21:33:18.826Z,3.18
2019-04-14T21:35:50.017Z,3.20
2019-04-14T21:38:18.071Z,3.22
2019-04-14T21:40:46.222Z,3.20
2019-04-14T21:43:12.316Z,3.24
2019-04-14T21:45:38.527Z,3.27
2019-04-14T21:48:04.638Z,3.26
2019-04-14T21:50:30.874Z,3.26
2019-04-14T21:52:58.160Z,3.22
2019-04-14T21:55:24.487Z,3.21
2019-04-14T21:57:55.198Z,3.19
2019-04-14T22:00:45.449Z,3.13
2019-04-14T22:03:15.577Z,3.16
2019-04-14T22:05:49.730Z,3.19
2019-04-14T22:08:17.852Z,3.22
2019-04-14T22:10:52.072Z,3.25
2019-04-14T22:13:18.300Z,3.21
2019-04-14T22:15:45.520Z,3.15
2019-04-14T22:18:11.738Z,3.10
2019-04-14T22:20:37.918Z,3.12
2019-04-14T22:23:06.198Z,3.12
2019-04-14T22:25:32.369Z,3.11
2019-04-14T22:27:58.595Z,3.09
2019-04-14T22:30:24.752Z,3.07
2019-04-14T22:32:51.037Z,3.08
2019-04-14T22:35:17.392Z,3.08
2019-04-14T22:37:43.659Z,3.16
2019-04-14T22:40:10.208Z,3.20
2019-04-14T22:42:36.574Z,3.25
2019-04-14T22:45:04.768Z,3.27
2019-04-14T22:47:30.876Z,3.30
2019-04-14T22:49:57.111Z,3.32
2019-04-14T22:52:23.220Z,3.34
2019-04-14T22:54:49.446Z,3.37
2019-04-14T22:57:15.582Z,3.40
2019-04-14T22:59:41.860Z,3.42
2019-04-14T23:02:09.998Z,3.45
2019-04-14T23:04:38.008Z,3.46
2019-04-14T23:07:06.220Z,3.47
2019-04-14T23:09:34.236Z,3.48
2019-04-14T23:12:08.419Z,3.47
2019-04-14T23:14:49.622Z,3.48
2019-04-14T23:17:20.845Z,3.49
2019-04-14T23:19:51.826Z,3.49
2019-04-14T23:22:31.929Z,3.52
2019-04-14T23:24:58.197Z,3.54
2019-04-14T23:27:25.606Z,3.54
2019-04-14T23:29:51.902Z,3.52
2019-04-14T23:32:18.328Z,3.48
2019-04-14T23:34:44.546Z,3.49
2019-04-14T23:37:10.653Z,3.52
2019-04-14T23:39:37.875Z,3.49
2019-04-14T23:42:04.300Z,3.43
2019-04-14T23:44:31.631Z,3.38
2019-04-14T23:46:57.910Z,3.21
2019-04-14T23:49:24.192Z,3.15
2019-04-14T23:51:50.368Z,3.16
2019-04-14T23:54:16.850Z,3.19
2019-04-14T23:56:43.157Z,3.21
2019-04-14T23:59:09.268Z,3.24
